sensor_id;sensor_type;location;lat;lon;timestamp;pressure;altitude;pressure_sealevel;temperature;humidity
52957;BME280;38819;42.692;23.342;2023-05-01T00:01:55;95249.22;;;13.63;63.38
52957;BME280;38819;42.692;23.342;2023-05-01T00:04:20;95248.13;;;13.73;62.75
52957;BME280;38819;42.692;23.342;2023-05-01T00:06:46;95261.66;;;13.87;62.11
52957;BME280;38819;42.692;23.342;2023-05-01T00:09:11;95257.78;;;13.88;62.16
52957;BME280;38819;42.692;23.342;2023-05-01T00:11:37;95258.09;;;13.86;61.73
52957;BME280;38819;42.692;23.342;2023-05-01T00:14:02;95260.19;;;13.89;61.33
52957;BME280;38819;42.692;23.342;2023-05-01T00:16:28;95258.63;;;13.88;61.71
52957;BME280;38819;42.692;23.342;2023-05-01T00:18:53;95265.47;;;13.86;62.18
52957;BME280;38819;42.692;23.342;2023-05-01T00:21:19;95265.94;;;13.88;62.23
52957;BME280;38819;42.692;23.342;2023-05-01T00:23:44;95260.97;;;13.81;62.86
52957;BME280;38819;42.692;23.342;2023-05-01T00:26:10;95257.91;;;13.74;63.45
52957;BME280;38819;42.692;23.342;2023-05-01T00:28:35;95268.56;;;13.70;64.39
52957;BME280;38819;42.692;23.342;2023-05-01T00:31:01;95266.13;;;13.60;65.08
52957;BME280;38819;42.692;23.342;2023-05-01T00:33:26;95271.38;;;13.57;65.23
52957;BME280;38819;42.692;23.342;2023-05-01T00:35:52;95275.63;;;13.49;65.56
52957;BME280;38819;42.692;23.342;2023-05-01T00:38:17;95266.00;;;13.43;65.59
52957;BME280;38819;42.692;23.342;2023-05-01T00:40:44;95275.56;;;13.40;65.56
52957;BME280;38819;42.692;23.342;2023-05-01T00:43:10;95278.91;;;13.37;65.79
52957;BME280;38819;42.692;23.342;2023-05-01T00:45:36;95283.19;;;13.15;66.72
52957;BME280;38819;42.692;23.342;2023-05-01T00:48:02;95280.81;;;13.00;67.62
52957;BME280;38819;42.692;23.342;2023-05-01T00:50:28;95282.66;;;12.91;67.91
52957;BME280;38819;42.692;23.342;2023-05-01T00:52:54;95287.09;;;12.87;68.03
52957;BME280;38819;42.692;23.342;2023-05-01T00:55:20;95287.88;;;12.87;68.16
52957;BME280;38819;42.692;23.342;2023-05-01T00:57:46;95285.78;;;12.84;68.41
52957;BME280;38819;42.692;23.342;2023-05-01T01:00:12;95291.69;;;12.86;68.29
52957;BME280;38819;42.692;23.342;2023-05-01T01:02:38;95290.69;;;12.82;68.25
52957;BME280;38819;42.692;23.342;2023-05-01T01:05:04;95292.63;;;12.82;68.55
52957;BME280;38819;42.692;23.342;2023-05-01T01:07:52;95292.72;;;12.76;68.53
52957;BME280;38819;42.692;23.342;2023-05-01T01:10:36;95283.97;;;12.79;68.33
52957;BME280;38819;42.692;23.342;2023-05-01T01:13:15;95285.59;;;12.81;67.35
52957;BME280;38819;42.692;23.342;2023-05-01T01:20:54;95300.47;;;12.55;69.73
52957;BME280;38819;42.692;23.342;2023-05-01T01:23:41;95302.69;;;12.26;70.82
52957;BME280;38819;42.692;23.342;2023-05-01T01:32:26;95314.03;;;12.14;71.05
52957;BME280;38819;42.692;23.342;2023-05-01T01:35:03;95308.31;;;12.15;71.18
52957;BME280;38819;42.692;23.342;2023-05-01T01:37:45;95310.81;;;12.12;71.41
52957;BME280;38819;42.692;23.342;2023-05-01T01:40:15;95319.25;;;12.10;71.69
52957;BME280;38819;42.692;23.342;2023-05-01T01:42:58;95308.22;;;12.07;71.74
52957;BME280;38819;42.692;23.342;2023-05-01T01:45:36;95307.09;;;12.08;71.29
52957;BME280;38819;42.692;23.342;2023-05-01T01:48:04;95310.44;;;12.04;71.40
52957;BME280;38819;42.692;23.342;2023-05-01T01:50:32;95296.75;;;11.96;71.52
52957;BME280;38819;42.692;23.342;2023-05-01T01:53:01;95306.59;;;11.92;71.86
52957;BME280;38819;42.692;23.342;2023-05-01T01:55:30;95298.19;;;11.93;71.99
52957;BME280;38819;42.692;23.342;2023-05-01T01:57:57;95290.63;;;11.90;71.79
52957;BME280;38819;42.692;23.342;2023-05-01T02:00:23;95291.53;;;11.99;71.48
52957;BME280;38819;42.692;23.342;2023-05-01T02:02:49;95291.25;;;12.01;71.26
52957;BME280;38819;42.692;23.342;2023-05-01T02:05:18;95299.47;;;11.96;71.53
52957;BME280;38819;42.692;23.342;2023-05-01T02:07:48;95306.59;;;11.92;71.83
52957;BME280;38819;42.692;23.342;2023-05-01T02:10:15;95306.66;;;11.86;71.85
52957;BME280;38819;42.692;23.342;2023-05-01T02:12:44;95307.44;;;11.87;71.69
52957;BME280;38819;42.692;23.342;2023-05-01T02:15:11;95313.44;;;11.84;71.78
52957;BME280;38819;42.692;23.342;2023-05-01T02:17:39;95302.13;;;11.82;71.87
52957;BME280;38819;42.692;23.342;2023-05-01T02:20:06;95308.63;;;11.81;71.42
52957;BME280;38819;42.692;23.342;2023-05-01T02:22:34;95305.13;;;11.80;71.03
52957;BME280;38819;42.692;23.342;2023-05-01T02:25:01;95301.13;;;11.78;71.54
52957;BME280;38819;42.692;23.342;2023-05-01T02:27:34;95305.13;;;11.80;71.40
52957;BME280;38819;42.692;23.342;2023-05-01T02:30:00;95300.00;;;11.65;72.36
52957;BME280;38819;42.692;23.342;2023-05-01T02:32:25;95310.03;;;11.64;72.47
52957;BME280;38819;42.692;23.342;2023-05-01T02:34:52;95303.41;;;11.71;72.23
52957;BME280;38819;42.692;23.342;2023-05-01T02:37:18;95307.72;;;11.72;72.49
52957;BME280;38819;42.692;23.342;2023-05-01T02:39:44;95299.91;;;11.70;72.29
52957;BME280;38819;42.692;23.342;2023-05-01T02:42:10;95307.94;;;11.75;71.99
52957;BME280;38819;42.692;23.342;2023-05-01T02:44:46;95303.50;;;11.65;71.91
52957;BME280;38819;42.692;23.342;2023-05-01T02:47:17;95311.59;;;11.65;72.05
52957;BME280;38819;42.692;23.342;2023-05-01T02:49:45;95299.72;;;11.47;72.53
52957;BME280;38819;42.692;23.342;2023-05-01T02:52:13;95310.84;;;11.46;72.81
52957;BME280;38819;42.692;23.342;2023-05-01T02:54:40;95300.09;;;11.41;72.70
52957;BME280;38819;42.692;23.342;2023-05-01T02:57:09;95308.47;;;11.44;72.54
52957;BME280;38819;42.692;23.342;2023-05-01T02:59:34;95306.53;;;11.45;72.49
52957;BME280;38819;42.692;23.342;2023-05-01T03:02:00;95310.25;;;11.49;72.24
52957;BME280;38819;42.692;23.342;2023-05-01T03:04:26;95317.97;;;11.56;71.81
52957;BME280;38819;42.692;23.342;2023-05-01T03:06:52;95326.06;;;11.42;72.00
52957;BME280;38819;42.692;23.342;2023-05-01T03:09:18;95333.25;;;10.94;73.29
52957;BME280;38819;42.692;23.342;2023-05-01T03:11:43;95325.78;;;11.05;73.31
52957;BME280;38819;42.692;23.342;2023-05-01T03:14:09;95328.06;;;10.98;73.00
52957;BME280;38819;42.692;23.342;2023-05-01T03:16:35;95326.75;;;10.96;73.08
52957;BME280;38819;42.692;23.342;2023-05-01T03:19:01;95327.31;;;10.92;73.27
52957;BME280;38819;42.692;23.342;2023-05-01T03:21:26;95321.56;;;10.99;72.95
52957;BME280;38819;42.692;23.342;2023-05-01T03:23:52;95334.84;;;10.96;73.17
52957;BME280;38819;42.692;23.342;2023-05-01T03:26:18;95328.56;;;11.00;72.76
52957;BME280;38819;42.692;23.342;2023-05-01T03:28:43;95335.06;;;10.99;72.90
52957;BME280;38819;42.692;23.342;2023-05-01T03:31:08;95338.44;;;10.91;72.88
52957;BME280;38819;42.692;23.342;2023-05-01T03:33:34;95334.28;;;10.99;72.60
52957;BME280;38819;42.692;23.342;2023-05-01T03:36:00;95336.97;;;10.99;72.53
52957;BME280;38819;42.692;23.342;2023-05-01T03:38:29;95342.66;;;10.97;72.65
52957;BME280;38819;42.692;23.342;2023-05-01T03:40:55;95344.44;;;11.07;72.16
52957;BME280;38819;42.692;23.342;2023-05-01T03:43:20;95345.47;;;11.11;71.83
52957;BME280;38819;42.692;23.342;2023-05-01T03:45:46;95350.91;;;11.06;71.63
52957;BME280;38819;42.692;23.342;2023-05-01T03:48:11;95347.50;;;11.00;72.07
52957;BME280;38819;42.692;23.342;2023-05-01T03:50:38;95351.28;;;10.99;71.99
52957;BME280;38819;42.692;23.342;2023-05-01T03:53:03;95339.31;;;11.05;71.89
52957;BME280;38819;42.692;23.342;2023-05-01T03:55:29;95356.13;;;11.21;71.37
52957;BME280;38819;42.692;23.342;2023-05-01T03:57:54;95353.06;;;11.28;71.00
52957;BME280;38819;42.692;23.342;2023-05-01T04:00:20;95360.06;;;11.29;71.16
52957;BME280;38819;42.692;23.342;2023-05-01T04:02:45;95363.50;;;11.35;71.10
52957;BME280;38819;42.692;23.342;2023-05-01T04:05:11;95362.53;;;11.44;70.78
52957;BME280;38819;42.692;23.342;2023-05-01T04:07:37;95364.63;;;11.47;70.93
52957;BME280;38819;42.692;23.342;2023-05-01T04:10:03;95365.47;;;11.48;71.04
52957;BME280;38819;42.692;23.342;2023-05-01T04:12:31;95368.78;;;11.59;70.82
52957;BME280;38819;42.692;23.342;2023-05-01T04:14:56;95366.88;;;11.59;70.76
52957;BME280;38819;42.692;23.342;2023-05-01T04:17:22;95364.91;;;11.65;70.79
52957;BME280;38819;42.692;23.342;2023-05-01T04:19:47;95369.94;;;11.72;70.80
52957;BME280;38819;42.692;23.342;2023-05-01T04:22:13;95358.53;;;11.75;70.67
52957;BME280;38819;42.692;23.342;2023-05-01T04:24:38;95353.34;;;11.78;70.65
52957;BME280;38819;42.692;23.342;2023-05-01T04:27:04;95364.78;;;11.89;70.38
52957;BME280;38819;42.692;23.342;2023-05-01T04:29:30;95370.44;;;11.93;70.29
52957;BME280;38819;42.692;23.342;2023-05-01T04:31:55;95372.84;;;11.94;70.48
52957;BME280;38819;42.692;23.342;2023-05-01T04:34:21;95374.97;;;11.97;70.71
52957;BME280;38819;42.692;23.342;2023-05-01T04:36:47;95369.03;;;11.95;70.62
52957;BME280;38819;42.692;23.342;2023-05-01T04:39:12;95368.75;;;11.97;70.67
52957;BME280;38819;42.692;23.342;2023-05-01T04:41:37;95378.69;;;12.01;70.09
52957;BME280;38819;42.692;23.342;2023-05-01T04:44:03;95378.78;;;11.96;70.15
52957;BME280;38819;42.692;23.342;2023-05-01T04:46:28;95362.16;;;12.03;69.85
52957;BME280;38819;42.692;23.342;2023-05-01T04:48:54;95380.09;;;12.13;69.91
52957;BME280;38819;42.692;23.342;2023-05-01T04:51:19;95382.66;;;12.23;69.36
52957;BME280;38819;42.692;23.342;2023-05-01T04:53:45;95376.31;;;12.28;68.93
52957;BME280;38819;42.692;23.342;2023-05-01T04:56:11;95382.75;;;12.32;68.80
52957;BME280;38819;42.692;23.342;2023-05-01T04:58:37;95378.13;;;12.32;68.46
52957;BME280;38819;42.692;23.342;2023-05-01T05:01:02;95381.13;;;12.31;68.97
52957;BME280;38819;42.692;23.342;2023-05-01T05:03:27;95389.69;;;12.38;68.96
52957;BME280;38819;42.692;23.342;2023-05-01T05:05:53;95387.78;;;12.38;68.97
52957;BME280;38819;42.692;23.342;2023-05-01T05:08:18;95401.53;;;12.42;68.77
52957;BME280;38819;42.692;23.342;2023-05-01T05:10:43;95396.09;;;12.42;68.66
52957;BME280;38819;42.692;23.342;2023-05-01T05:13:09;95399.31;;;12.30;69.03
52957;BME280;38819;42.692;23.342;2023-05-01T05:15:34;95395.81;;;12.44;68.76
52957;BME280;38819;42.692;23.342;2023-05-01T05:18:00;95407.03;;;12.37;68.72
52957;BME280;38819;42.692;23.342;2023-05-01T05:20:25;95406.94;;;12.42;68.57
52957;BME280;38819;42.692;23.342;2023-05-01T05:22:51;95410.25;;;12.39;68.72
52957;BME280;38819;42.692;23.342;2023-05-01T05:25:17;95408.56;;;12.43;68.68
52957;BME280;38819;42.692;23.342;2023-05-01T05:27:42;95412.47;;;12.51;68.36
52957;BME280;38819;42.692;23.342;2023-05-01T05:30:08;95408.84;;;12.55;68.24
52957;BME280;38819;42.692;23.342;2023-05-01T05:32:34;95414.38;;;12.64;68.32
52957;BME280;38819;42.692;23.342;2023-05-01T05:35:00;95413.69;;;12.72;68.33
52957;BME280;38819;42.692;23.342;2023-05-01T05:37:25;95407.06;;;12.78;68.20
52957;BME280;38819;42.692;23.342;2023-05-01T05:39:51;95410.06;;;12.91;67.73
52957;BME280;38819;42.692;23.342;2023-05-01T05:42:16;95412.28;;;12.89;67.72
52957;BME280;38819;42.692;23.342;2023-05-01T05:44:42;95402.53;;;13.02;67.36
52957;BME280;38819;42.692;23.342;2023-05-01T05:47:07;95409.44;;;13.08;67.35
52957;BME280;38819;42.692;23.342;2023-05-01T05:49:33;95419.19;;;13.09;67.05
52957;BME280;38819;42.692;23.342;2023-05-01T05:51:58;95413.72;;;13.23;66.79
52957;BME280;38819;42.692;23.342;2023-05-01T05:54:23;95408.31;;;13.23;66.61
52957;BME280;38819;42.692;23.342;2023-05-01T05:56:49;95417.94;;;13.29;66.55
52957;BME280;38819;42.692;23.342;2023-05-01T05:59:15;95416.16;;;13.38;66.23
52957;BME280;38819;42.692;23.342;2023-05-01T06:01:41;95421.97;;;13.45;66.16
52957;BME280;38819;42.692;23.342;2023-05-01T06:04:07;95423.06;;;13.44;66.27
52957;BME280;38819;42.692;23.342;2023-05-01T06:06:32;95433.59;;;13.46;66.17
52957;BME280;38819;42.692;23.342;2023-05-01T06:08:58;95435.72;;;13.49;66.50
52957;BME280;38819;42.692;23.342;2023-05-01T06:11:24;95431.28;;;13.53;65.74
52957;BME280;38819;42.692;23.342;2023-05-01T06:13:50;95440.31;;;13.62;65.38
52957;BME280;38819;42.692;23.342;2023-05-01T06:16:16;95435.47;;;13.59;65.67
52957;BME280;38819;42.692;23.342;2023-05-01T06:18:42;95432.03;;;13.67;65.63
52957;BME280;38819;42.692;23.342;2023-05-01T06:21:07;95432.94;;;13.77;65.26
52957;BME280;38819;42.692;23.342;2023-05-01T06:23:32;95431.91;;;13.73;65.22
52957;BME280;38819;42.692;23.342;2023-05-01T06:25:58;95428.97;;;13.60;65.71
52957;BME280;38819;42.692;23.342;2023-05-01T06:28:24;95431.97;;;13.59;65.78
52957;BME280;38819;42.692;23.342;2023-05-01T06:30:49;95430.00;;;13.73;65.54
52957;BME280;38819;42.692;23.342;2023-05-01T06:33:15;95431.81;;;13.78;65.32
52957;BME280;38819;42.692;23.342;2023-05-01T06:35:40;95439.81;;;13.83;65.21
52957;BME280;38819;42.692;23.342;2023-05-01T06:38:06;95436.69;;;13.89;65.17
52957;BME280;38819;42.692;23.342;2023-05-01T06:40:31;95433.22;;;13.98;64.80
52957;BME280;38819;42.692;23.342;2023-05-01T06:43:01;95428.97;;;14.05;64.61
52957;BME280;38819;42.692;23.342;2023-05-01T06:45:28;95438.97;;;14.19;64.65
52957;BME280;38819;42.692;23.342;2023-05-01T06:47:53;95438.28;;;14.13;64.79
52957;BME280;38819;42.692;23.342;2023-05-01T06:50:19;95437.84;;;14.20;64.31
52957;BME280;38819;42.692;23.342;2023-05-01T06:52:44;95434.69;;;14.26;64.37
52957;BME280;38819;42.692;23.342;2023-05-01T06:55:10;95426.63;;;14.35;63.99
52957;BME280;38819;42.692;23.342;2023-05-01T06:57:36;95430.91;;;14.36;63.47
52957;BME280;38819;42.692;23.342;2023-05-01T07:00:02;95440.31;;;14.30;63.60
52957;BME280;38819;42.692;23.342;2023-05-01T07:02:28;95435.13;;;14.42;63.59
52957;BME280;38819;42.692;23.342;2023-05-01T07:04:53;95433.75;;;14.31;63.86
52957;BME280;38819;42.692;23.342;2023-05-01T07:07:18;95440.78;;;14.23;63.96
52957;BME280;38819;42.692;23.342;2023-05-01T07:09:44;95444.91;;;14.21;64.40
52957;BME280;38819;42.692;23.342;2023-05-01T07:12:09;95442.34;;;14.24;64.32
52957;BME280;38819;42.692;23.342;2023-05-01T07:14:35;95449.88;;;14.27;64.21
52957;BME280;38819;42.692;23.342;2023-05-01T07:17:01;95447.53;;;14.35;63.86
52957;BME280;38819;42.692;23.342;2023-05-01T07:19:26;95446.13;;;14.37;63.59
52957;BME280;38819;42.692;23.342;2023-05-01T07:21:52;95448.38;;;14.44;63.86
52957;BME280;38819;42.692;23.342;2023-05-01T07:24:18;95446.84;;;14.52;63.39
52957;BME280;38819;42.692;23.342;2023-05-01T07:26:43;95445.56;;;14.58;63.30
52957;BME280;38819;42.692;23.342;2023-05-01T07:29:08;95448.88;;;14.69;63.12
52957;BME280;38819;42.692;23.342;2023-05-01T07:31:34;95452.28;;;14.83;63.08
52957;BME280;38819;42.692;23.342;2023-05-01T07:33:59;95452.28;;;14.83;63.44
52957;BME280;38819;42.692;23.342;2023-05-01T07:36:25;95452.97;;;14.89;63.19
52957;BME280;38819;42.692;23.342;2023-05-01T07:38:50;95449.28;;;14.93;63.44
52957;BME280;38819;42.692;23.342;2023-05-01T07:41:16;95446.56;;;14.93;63.20
52957;BME280;38819;42.692;23.342;2023-05-01T07:43:41;95444.53;;;15.08;62.84
52957;BME280;38819;42.692;23.342;2023-05-01T07:46:06;95447.88;;;15.05;62.55
52957;BME280;38819;42.692;23.342;2023-05-01T07:48:32;95444.53;;;15.08;62.33
52957;BME280;38819;42.692;23.342;2023-05-01T07:51:01;95438.16;;;15.21;61.65
52957;BME280;38819;42.692;23.342;2023-05-01T07:53:26;95445.88;;;15.28;61.53
52957;BME280;38819;42.692;23.342;2023-05-01T07:55:52;95440.91;;;15.30;61.54
52957;BME280;38819;42.692;23.342;2023-05-01T07:58:17;95440.59;;;15.31;60.71
52957;BME280;38819;42.692;23.342;2023-05-01T08:00:43;95441.91;;;15.43;60.61
52957;BME280;38819;42.692;23.342;2023-05-01T08:03:11;95441.13;;;15.51;60.81
52957;BME280;38819;42.692;23.342;2023-05-01T08:05:40;95449.13;;;15.56;60.92
52957;BME280;38819;42.692;23.342;2023-05-01T08:08:06;95446.56;;;15.60;59.66
52957;BME280;38819;42.692;23.342;2023-05-01T08:10:31;95449.13;;;15.73;60.05
52957;BME280;38819;42.692;23.342;2023-05-01T08:12:57;95447.22;;;15.74;60.77
52957;BME280;38819;42.692;23.342;2023-05-01T08:15:22;95439.41;;;15.81;60.48
52957;BME280;38819;42.692;23.342;2023-05-01T08:17:48;95436.34;;;15.91;60.17
52957;BME280;38819;42.692;23.342;2023-05-01T08:20:15;95448.19;;;15.87;59.35
52957;BME280;38819;42.692;23.342;2023-05-01T08:22:40;95446.13;;;15.84;59.01
52957;BME280;38819;42.692;23.342;2023-05-01T08:25:06;95435.41;;;15.87;58.55
52957;BME280;38819;42.692;23.342;2023-05-01T08:27:32;95441.78;;;15.91;57.49
52957;BME280;38819;42.692;23.342;2023-05-01T08:29:58;95434.59;;;15.96;56.60
52957;BME280;38819;42.692;23.342;2023-05-01T08:32:23;95441.13;;;16.12;57.14
52957;BME280;38819;42.692;23.342;2023-05-01T08:34:48;95439.38;;;16.16;57.12
52957;BME280;38819;42.692;23.342;2023-05-01T08:37:14;95433.44;;;16.23;55.20
52957;BME280;38819;42.692;23.342;2023-05-01T08:39:39;95435.84;;;16.24;55.00
52957;BME280;38819;42.692;23.342;2023-05-01T08:42:05;95437.75;;;16.33;56.40
52957;BME280;38819;42.692;23.342;2023-05-01T08:44:31;95434.72;;;16.34;56.82
52957;BME280;38819;42.692;23.342;2023-05-01T08:47:15;95425.38;;;16.35;55.78
52957;BME280;38819;42.692;23.342;2023-05-01T08:49:42;95426.31;;;16.48;55.27
52957;BME280;38819;42.692;23.342;2023-05-01T08:52:09;95429.19;;;16.52;54.77
52957;BME280;38819;42.692;23.342;2023-05-01T08:54:38;95428.22;;;16.56;53.16
52957;BME280;38819;42.692;23.342;2023-05-01T08:57:07;95423.53;;;16.65;53.20
52957;BME280;38819;42.692;23.342;2023-05-01T08:59:34;95425.50;;;16.56;51.09
52957;BME280;38819;42.692;23.342;2023-05-01T09:02:01;95425.66;;;16.60;50.11
52957;BME280;38819;42.692;23.342;2023-05-01T09:04:35;95428.84;;;16.62;50.65
52957;BME280;38819;42.692;23.342;2023-05-01T09:07:02;95425.44;;;16.74;52.81
52957;BME280;38819;42.692;23.342;2023-05-01T09:09:28;95421.91;;;16.73;51.06
52957;BME280;38819;42.692;23.342;2023-05-01T09:11:55;95419.47;;;16.80;50.54
52957;BME280;38819;42.692;23.342;2023-05-01T09:14:24;95421.69;;;16.96;50.08
52957;BME280;38819;42.692;23.342;2023-05-01T09:16:50;95427.75;;;17.01;49.87
52957;BME280;38819;42.692;23.342;2023-05-01T09:19:17;95423.06;;;17.11;50.97
52957;BME280;38819;42.692;23.342;2023-05-01T09:21:43;95428.19;;;17.12;50.29
52957;BME280;38819;42.692;23.342;2023-05-01T09:24:08;95421.75;;;17.17;51.31
52957;BME280;38819;42.692;23.342;2023-05-01T09:26:35;95420.69;;;17.30;51.33
52957;BME280;38819;42.692;23.342;2023-05-01T09:29:04;95425.50;;;17.33;50.71
52957;BME280;38819;42.692;23.342;2023-05-01T09:31:30;95424.06;;;17.36;51.44
52957;BME280;38819;42.692;23.342;2023-05-01T09:34:00;95424.19;;;17.39;49.70
52957;BME280;38819;42.692;23.342;2023-05-01T09:36:28;95427.13;;;17.34;50.35
52957;BME280;38819;42.692;23.342;2023-05-01T09:38:55;95424.19;;;17.39;51.48
52957;BME280;38819;42.692;23.342;2023-05-01T09:41:21;95419.47;;;17.49;51.21
52957;BME280;38819;42.692;23.342;2023-05-01T09:43:54;95422.00;;;17.54;50.22
52957;BME280;38819;42.692;23.342;2023-05-01T09:46:21;95415.41;;;17.55;50.73
52957;BME280;38819;42.692;23.342;2023-05-01T09:48:54;95414.88;;;17.62;50.94
52957;BME280;38819;42.692;23.342;2023-05-01T09:51:28;95410.63;;;17.73;51.05
52957;BME280;38819;42.692;23.342;2023-05-01T09:54:02;95411.66;;;17.81;50.42
52957;BME280;38819;42.692;23.342;2023-05-01T09:56:30;95402.22;;;17.78;50.15
52957;BME280;38819;42.692;23.342;2023-05-01T09:58:58;95408.72;;;17.86;50.28
52957;BME280;38819;42.692;23.342;2023-05-01T10:01:42;95404.09;;;17.86;50.03
52957;BME280;38819;42.692;23.342;2023-05-01T10:04:08;95402.69;;;17.80;50.10
52957;BME280;38819;42.692;23.342;2023-05-01T10:06:34;95397.78;;;17.94;50.00
52957;BME280;38819;42.692;23.342;2023-05-01T10:09:01;95408.41;;;18.08;49.47
52957;BME280;38819;42.692;23.342;2023-05-01T10:11:27;95405.00;;;18.11;49.56
52957;BME280;38819;42.692;23.342;2023-05-01T10:14:09;95410.72;;;18.19;48.38
52957;BME280;38819;42.692;23.342;2023-05-01T10:16:36;95405.13;;;18.15;49.04
52957;BME280;38819;42.692;23.342;2023-05-01T10:19:03;95401.28;;;18.16;48.20
52957;BME280;38819;42.692;23.342;2023-05-01T10:21:32;95391.59;;;18.19;49.14
52957;BME280;38819;42.692;23.342;2023-05-01T10:23:59;95397.31;;;18.26;49.00
52957;BME280;38819;42.692;23.342;2023-05-01T10:26:25;95394.66;;;18.17;48.78
52957;BME280;38819;42.692;23.342;2023-05-01T10:28:51;95394.53;;;18.13;48.79
52957;BME280;38819;42.692;23.342;2023-05-01T10:31:17;95386.13;;;18.19;48.35
52957;BME280;38819;42.692;23.342;2023-05-01T10:33:43;95394.22;;;18.27;46.61
52957;BME280;38819;42.692;23.342;2023-05-01T10:36:17;95391.28;;;18.32;47.74
52957;BME280;38819;42.692;23.342;2023-05-01T10:38:43;95396.41;;;18.34;47.20
52957;BME280;38819;42.692;23.342;2023-05-01T10:41:13;95390.03;;;18.30;46.62
52957;BME280;38819;42.692;23.342;2023-05-01T10:43:38;95392.78;;;18.30;46.63
52957;BME280;38819;42.692;23.342;2023-05-01T10:51:15;95401.06;;;18.21;45.96
52957;BME280;38819;42.692;23.342;2023-05-01T10:59:04;95383.44;;;18.31;45.44
52957;BME280;38819;42.692;23.342;2023-05-01T11:01:34;95392.44;;;18.31;45.76
52957;BME280;38819;42.692;23.342;2023-05-01T11:04:01;95383.09;;;18.32;45.55
52957;BME280;38819;42.692;23.342;2023-05-01T11:06:33;95392.31;;;18.28;45.74
52957;BME280;38819;42.692;23.342;2023-05-01T11:08:59;95387.84;;;18.23;45.89
52957;BME280;38819;42.692;23.342;2023-05-01T11:14:01;95387.41;;;18.21;45.44
52957;BME280;38819;42.692;23.342;2023-05-01T11:19:02;95381.59;;;18.23;44.87
52957;BME280;38819;42.692;23.342;2023-05-01T11:21:28;95386.41;;;18.38;44.48
52957;BME280;38819;42.692;23.342;2023-05-01T11:23:54;95391.31;;;18.45;44.70
52957;BME280;38819;42.692;23.342;2023-05-01T11:26:21;95376.75;;;18.53;44.81
52957;BME280;38819;42.692;23.342;2023-05-01T11:28:47;95384.84;;;18.62;44.10
52957;BME280;38819;42.692;23.342;2023-05-01T11:31:16;95386.47;;;18.63;43.37
52957;BME280;38819;42.692;23.342;2023-05-01T11:33:42;95383.72;;;18.63;42.46
52957;BME280;38819;42.692;23.342;2023-05-01T11:36:08;95388.50;;;18.66;42.79
52957;BME280;38819;42.692;23.342;2023-05-01T11:38:34;95382.47;;;18.73;42.46
52957;BME280;38819;42.692;23.342;2023-05-01T11:41:01;95382.34;;;18.69;41.95
52957;BME280;38819;42.692;23.342;2023-05-01T11:43:28;95371.44;;;18.81;42.35
52957;BME280;38819;42.692;23.342;2023-05-01T11:45:54;95382.97;;;18.87;40.65
52957;BME280;38819;42.692;23.342;2023-05-01T11:48:20;95379.56;;;18.90;41.27
52957;BME280;38819;42.692;23.342;2023-05-01T11:50:46;95382.53;;;18.85;41.29
52957;BME280;38819;42.692;23.342;2023-05-01T11:53:13;95372.38;;;18.85;41.48
52957;BME280;38819;42.692;23.342;2023-05-01T11:55:43;95374.16;;;18.81;42.25
52957;BME280;38819;42.692;23.342;2023-05-01T11:58:09;95372.56;;;18.80;43.91
52957;BME280;38819;42.692;23.342;2023-05-01T12:03:06;95373.06;;;18.95;44.07
52957;BME280;38819;42.692;23.342;2023-05-01T12:05:33;95376.47;;;19.04;43.52
52957;BME280;38819;42.692;23.342;2023-05-01T12:10:38;95374.75;;;19.12;43.57
52957;BME280;38819;42.692;23.342;2023-05-01T12:13:05;95387.19;;;19.09;42.46
52957;BME280;38819;42.692;23.342;2023-05-01T12:15:35;95391.19;;;19.12;42.86
52957;BME280;38819;42.692;23.342;2023-05-01T12:18:02;95402.69;;;19.17;42.87
52957;BME280;38819;42.692;23.342;2023-05-01T12:20:42;95398.94;;;19.22;41.73
52957;BME280;38819;42.692;23.342;2023-05-01T12:23:10;95385.94;;;19.31;41.07
52957;BME280;38819;42.692;23.342;2023-05-01T12:25:37;95383.50;;;19.42;41.47
52957;BME280;38819;42.692;23.342;2023-05-01T12:28:09;95397.06;;;19.51;40.53
52957;BME280;38819;42.692;23.342;2023-05-01T12:30:35;95393.44;;;19.34;42.47
52957;BME280;38819;42.692;23.342;2023-05-01T12:33:07;95400.78;;;19.18;44.94
52957;BME280;38819;42.692;23.342;2023-05-01T12:35:33;95393.72;;;19.04;44.35
52957;BME280;38819;42.692;23.342;2023-05-01T12:37:59;95396.31;;;18.88;44.87
52957;BME280;38819;42.692;23.342;2023-05-01T12:40:25;95393.13;;;18.86;45.41
52957;BME280;38819;42.692;23.342;2023-05-01T12:42:55;95386.53;;;19.00;46.09
52957;BME280;38819;42.692;23.342;2023-05-01T12:45:22;95390.16;;;19.04;44.22
52957;BME280;38819;42.692;23.342;2023-05-01T12:47:47;95400.97;;;19.13;44.22
52957;BME280;38819;42.692;23.342;2023-05-01T12:50:13;95394.81;;;19.16;44.87
52957;BME280;38819;42.692;23.342;2023-05-01T12:52:38;95408.28;;;19.33;45.25
52957;BME280;38819;42.692;23.342;2023-05-01T12:55:04;95393.19;;;19.39;43.58
52957;BME280;38819;42.692;23.342;2023-05-01T12:57:30;95382.63;;;19.25;43.67
52957;BME280;38819;42.692;23.342;2023-05-01T13:00:02;95389.00;;;19.30;44.56
52957;BME280;38819;42.692;23.342;2023-05-01T13:02:32;95392.31;;;19.11;44.67
52957;BME280;38819;42.692;23.342;2023-05-01T13:05:08;95391.75;;;19.05;44.98
52957;BME280;38819;42.692;23.342;2023-05-01T13:07:35;95403.38;;;19.14;45.37
52957;BME280;38819;42.692;23.342;2023-05-01T13:10:01;95385.34;;;19.25;45.92
52957;BME280;38819;42.692;23.342;2023-05-01T13:12:29;95385.34;;;19.25;45.64
52957;BME280;38819;42.692;23.342;2023-05-01T13:14:55;95400.53;;;19.11;44.33
52957;BME280;38819;42.692;23.342;2023-05-01T13:19:59;95405.88;;;19.19;44.08
52957;BME280;38819;42.692;23.342;2023-05-01T13:22:32;95407.50;;;19.20;44.13
52957;BME280;38819;42.692;23.342;2023-05-01T13:24:59;95411.50;;;19.23;43.85